Terminal Aerodrome Forecast
Issued by NWS Albany, NY

Home | Current Version | Previous Version | Text Only | Print | Product List | Glossary On
Versions: 1 2 3 4 5 6 7 8 9 10 11 12 13 14 15 16 17
558
FTUS41 KALY 260558 CCA
TAFPOU
TAF COR
KPOU 260558Z 2606/2706 03004KT P6SM SCT010 BKN100
      TEMPO 2608/2612 BKN010
     FM261200 06004KT P6SM VCSH OVC045 PROB30 2615/2618 4SM -RA
      OVC025
     FM261800 09004KT 6SM -RA BR OVC030
     FM270400 09004KT 6SM -RA BR OVC008=

USA.gov is the U.S. government's official web portal to all federal, state and local government web resources and services.